Time;durP1;ratioP1;P1;durP2;ratioP2;P2;SDS_P1;SDS_P2;PMS_P1;PMS_P2;Temp;Humidity;BMP_temperature;BMP_pressure;BME280_temperature;BME280_humidity;BME280_pressure;Samples;Min_cycle;Max_cycle;Signal;HPM_P1;HPM_P2
2023/09/24 00:02:14;;;;;;;2.97;1.88;;;;;;;14.89;58.96;99528.97;5125937;28;20362;-73
2023/09/24 00:04:41;;;;;;;3.08;2.30;;;;;;;14.96;58.68;99551.59;5125608;28;20078;-72
2023/09/24 00:07:10;;;;;;;2.80;1.73;;;;;;;14.97;58.40;99544.44;5127468;28;20051;-72
2023/09/24 00:09:36;;;;;;;3.80;2.00;;;;;;;14.98;58.78;99530.97;5126915;28;20045;-72
2023/09/24 00:12:04;;;;;;;3.05;2.05;;;;;;;14.96;58.43;99519.56;5126607;28;20207;-72
2023/09/24 00:14:32;;;;;;;3.00;1.80;;;;;;;14.90;58.45;99527.13;5126736;28;20035;-72
2023/09/24 00:17:00;;;;;;;2.70;1.90;;;;;;;14.95;58.95;99557.03;5127511;28;20063;-73
2023/09/24 00:19:26;;;;;;;2.65;1.88;;;;;;;14.84;58.36;99541.78;5125841;28;20047;-73
2023/09/24 00:21:53;;;;;;;3.38;2.20;;;;;;;14.80;58.11;99558.94;5126621;28;20036;-72
2023/09/24 00:24:20;;;;;;;3.20;2.00;;;;;;;14.83;57.77;99557.88;5125896;28;20050;-72
2023/09/24 00:26:47;;;;;;;4.13;2.40;;;;;;;14.84;57.98;99568.44;5127163;28;20110;-73
2023/09/24 00:29:14;;;;;;;2.65;1.73;;;;;;;14.70;57.69;99545.41;5126551;28;20043;-72
2023/09/24 00:31:42;;;;;;;2.92;1.90;;;;;;;14.89;57.94;99560.13;5127087;28;20051;-73
2023/09/24 00:34:09;;;;;;;2.90;1.88;;;;;;;14.29;57.46;99464.66;5126997;28;20054;-73
2023/09/24 00:36:36;;;;;;;2.80;2.05;;;;;;;14.75;57.41;99551.25;5126609;28;20230;-73
2023/09/24 00:39:04;;;;;;;3.20;1.80;;;;;;;14.81;57.23;99554.47;5126741;28;20081;-73
2023/09/24 00:41:31;;;;;;;5.63;2.45;;;;;;;14.33;57.59;99471.47;5126403;28;20047;-73
2023/09/24 00:43:58;;;;;;;3.20;2.00;;;;;;;14.80;57.08;99544.75;5126718;28;20295;-73
2023/09/24 00:46:26;;;;;;;3.80;1.92;;;;;;;14.76;57.22;99541.44;5126299;28;20239;-74
2023/09/24 00:48:59;;;;;;;2.58;1.90;;;;;;;14.82;57.25;99557.03;5126353;28;20074;-74
2023/09/24 00:51:28;;;;;;;3.13;1.90;;;;;;;14.07;56.27;99452.78;5126704;28;20047;-73
2023/09/24 00:53:55;;;;;;;2.85;1.77;;;;;;;14.72;56.34;99559.47;5126556;28;20100;-73
2023/09/24 00:56:24;;;;;;;3.35;1.80;;;;;;;14.72;55.96;99550.63;5125528;28;20103;-74
2023/09/24 00:58:51;;;;;;;3.72;1.90;;;;;;;14.11;56.50;99432.97;5125503;28;20039;-73
2023/09/24 01:01:20;;;;;;;3.80;1.80;;;;;;;14.62;56.53;99518.41;5126008;28;20039;-73
2023/09/24 01:03:49;;;;;;;2.58;1.70;;;;;;;14.88;57.24;99553.09;5125856;28;20112;-73
2023/09/24 01:06:19;;;;;;;3.05;1.90;;;;;;;14.11;56.77;99427.66;5126148;28;20031;-73
2023/09/24 01:08:46;;;;;;;3.17;1.85;;;;;;;12.41;56.54;99130.44;5126494;28;20040;-73
2023/09/24 01:11:14;;;;;;;2.95;2.00;;;;;;;14.52;56.47;99519.06;5126386;28;20176;-73
2023/09/24 01:13:42;;;;;;;2.47;1.73;;;;;;;14.52;56.20;99519.06;5126431;28;20330;-73
2023/09/24 01:16:11;;;;;;;3.55;2.10;;;;;;;14.56;56.56;99523.22;5125793;28;20300;-73
2023/09/24 01:18:39;;;;;;;3.72;2.13;;;;;;;14.51;56.17;99518.22;5125231;28;20067;-73
2023/09/24 01:21:12;;;;;;;2.70;1.85;;;;;;;14.77;57.25;99542.31;5126487;28;20039;-73
2023/09/24 01:23:42;;;;;;;2.95;1.80;;;;;;;14.70;56.08;99540.06;5125017;28;20039;-73
2023/09/24 01:26:10;;;;;;;2.70;1.70;;;;;;;14.72;57.07;99537.28;5130069;28;20353;-73
2023/09/24 01:28:39;;;;;;;3.60;1.95;;;;;;;14.77;56.33;99539.63;5129213;28;20085;-73
2023/09/24 01:31:06;;;;;;;5.97;2.38;;;;;;;14.79;57.07;99543.06;5129080;28;20303;-73
2023/09/24 01:33:36;;;;;;;3.03;2.05;;;;;;;14.73;56.45;99544.31;5130175;28;20100;-73
2023/09/24 01:36:03;;;;;;;3.35;1.70;;;;;;;14.79;56.75;99548.38;5130143;28;20039;-73
2023/09/24 01:38:29;;;;;;;3.40;2.30;;;;;;;14.84;57.92;99552.44;5129823;28;20047;-73
2023/09/24 01:40:59;;;;;;;2.80;1.80;;;;;;;14.55;56.54;99509.03;5128873;28;20058;-73
2023/09/24 01:43:26;;;;;;;4.30;2.08;;;;;;;14.18;56.16;99468.06;5130160;28;20043;-73
2023/09/24 01:45:53;;;;;;;2.55;1.75;;;;;;;14.75;56.12;99567.28;5130191;28;20187;-73
2023/09/24 01:48:20;;;;;;;3.53;1.80;;;;;;;14.75;56.15;99579.75;5130204;28;20310;-73
2023/09/24 01:50:46;;;;;;;3.28;1.85;;;;;;;14.73;56.46;99563.84;5128741;28;20181;-73
2023/09/24 01:53:14;;;;;;;3.28;1.80;;;;;;;14.71;56.18;99576.44;5129831;28;20047;-73
2023/09/24 01:55:41;;;;;;;3.05;1.70;;;;;;;14.78;56.72;99578.69;5129476;28;20035;-73
2023/09/24 01:58:09;;;;;;;2.83;1.77;;;;;;;14.49;55.88;99519.28;5129442;28;20184;-73
2023/09/24 02:00:36;;;;;;;3.05;2.15;;;;;;;14.80;57.05;99561.63;5128566;28;20050;-73
2023/09/24 02:03:07;;;;;;;3.70;2.30;;;;;;;14.83;56.37;99564.06;5129392;28;20364;-73
2023/09/24 02:05:34;;;;;;;3.03;1.77;;;;;;;14.80;56.50;99561.63;5129767;28;20043;-73
2023/09/24 02:08:05;;;;;;;3.10;2.08;;;;;;;14.77;56.70;99560.97;5129223;28;20052;-73
2023/09/24 02:10:33;;;;;;;3.00;1.90;;;;;;;14.68;55.90;99551.78;5129545;28;20036;-73
2023/09/24 02:13:00;;;;;;;2.40;1.65;;;;;;;14.67;56.20;99558.94;5129452;28;20044;-73
2023/09/24 02:15:29;;;;;;;3.05;1.85;;;;;;;14.68;56.83;99551.78;5128319;28;20047;-73
2023/09/24 02:17:55;;;;;;;2.65;1.80;;;;;;;14.68;56.75;99552.66;5129355;28;20040;-73
2023/09/24 02:20:24;;;;;;;3.88;2.13;;;;;;;14.68;56.67;99549.97;5128157;28;20040;-73
2023/09/24 02:22:52;;;;;;;3.25;1.90;;;;;;;14.61;55.74;99554.03;5128925;28;20040;-73
2023/09/24 02:25:19;;;;;;;3.55;2.10;;;;;;;14.59;56.13;99547.06;5129081;28;20345;-73
2023/09/24 02:27:48;;;;;;;4.63;1.98;;;;;;;14.39;55.70;99556.38;5129125;28;20089;-73
2023/09/24 02:30:16;;;;;;;2.90;2.00;;;;;;;14.44;57.08;99543.59;5129074;28;20207;-73
2023/09/24 02:32:44;;;;;;;3.20;2.40;;;;;;;14.44;56.27;99541.78;5127908;28;20241;-73
2023/09/24 02:35:12;;;;;;;3.13;2.10;;;;;;;14.42;57.58;99526.84;5128449;28;20275;-73
2023/09/24 02:37:39;;;;;;;2.97;2.00;;;;;;;14.52;56.24;99548.41;5128974;28;20051;-73
2023/09/24 02:40:12;;;;;;;3.40;1.80;;;;;;;14.47;55.42;99551.38;5129169;28;20039;-73
2023/09/24 02:42:38;;;;;;;3.60;2.13;;;;;;;14.20;56.42;99518.59;5127787;28;20085;-73
2023/09/24 02:45:08;;;;;;;5.82;2.42;;;;;;;14.40;56.17;99574.09;5128450;28;20361;-73
2023/09/24 02:47:35;;;;;;;3.50;1.98;;;;;;;14.26;56.13;99564.34;5127692;28;20046;-73
2023/09/24 02:50:07;;;;;;;3.17;2.13;;;;;;;14.43;56.23;99587.22;5127664;28;20047;-73
2023/09/24 02:52:34;;;;;;;4.28;2.30;;;;;;;14.51;56.69;99592.03;5127599;28;20039;-73
2023/09/24 02:55:01;;;;;;;3.45;2.10;;;;;;;14.44;55.47;99589.78;5127511;28;20093;-73
2023/09/24 02:57:28;;;;;;;3.95;2.60;;;;;;;14.07;55.65;99558.53;5127428;28;20047;-73
2023/09/24 02:59:55;;;;;;;3.80;2.30;;;;;;;14.40;56.70;99603.41;5128566;28;20100;-73
2023/09/24 03:02:21;;;;;;;3.55;2.33;;;;;;;14.15;55.64;99566.03;5128008;28;20306;-73
2023/09/24 03:04:48;;;;;;;4.07;2.28;;;;;;;14.33;56.39;99618.13;5128471;28;20307;-73
2023/09/24 03:07:16;;;;;;;3.00;2.15;;;;;;;13.98;55.87;99561.81;5128280;28;20040;-73
2023/09/24 03:09:43;;;;;;;3.35;2.25;;;;;;;14.36;56.29;99612.59;5128363;28;20047;-73
2023/09/24 03:12:09;;;;;;;3.53;2.47;;;;;;;14.29;56.46;99616.59;5128498;28;20198;-73
2023/09/24 03:14:36;;;;;;;3.58;2.10;;;;;;;13.85;55.66;99537.78;5128513;28;20043;-73
2023/09/24 03:17:03;;;;;;;3.35;2.38;;;;;;;14.33;57.12;99608.31;5128476;28;20036;-73
2023/09/24 03:19:30;;;;;;;3.75;2.20;;;;;;;14.45;56.17;99598.63;5127040;28;20054;-73
2023/09/24 03:21:57;;;;;;;4.32;2.35;;;;;;;14.22;55.72;99575.31;5128071;28;20063;-73
2023/09/24 03:24:25;;;;;;;2.65;1.77;;;;;;;14.32;56.43;99603.94;5128294;28;20039;-73
2023/09/24 03:26:52;;;;;;;3.38;2.10;;;;;;;14.36;56.29;99601.91;5127915;28;20043;-73
2023/09/24 03:29:19;;;;;;;2.97;2.15;;;;;;;14.24;56.29;99571.59;5126804;28;20096;-72
2023/09/24 03:31:46;;;;;;;3.13;2.47;;;;;;;14.32;56.48;99605.75;5127872;28;20044;-73
2023/09/24 03:34:13;;;;;;;3.65;2.35;;;;;;;14.37;57.53;99608.97;5127777;28;20306;-73
2023/09/24 03:36:41;;;;;;;2.75;1.80;;;;;;;14.31;55.67;99614.69;5128085;28;20035;-73
2023/09/24 03:39:09;;;;;;;3.05;1.80;;;;;;;14.09;55.21;99612.59;5126661;28;20035;-73
2023/09/24 03:41:37;;;;;;;3.22;2.40;;;;;;;14.25;56.61;99621.28;5127675;28;20300;-73
2023/09/24 03:44:05;;;;;;;3.55;2.20;;;;;;;13.86;56.38;99555.47;5127584;28;20039;-73
2023/09/24 03:46:32;;;;;;;4.75;2.30;;;;;;;14.28;57.17;99631.75;5126709;28;20035;-73
2023/09/24 03:48:59;;;;;;;3.10;2.20;;;;;;;14.21;56.07;99624.25;5126024;28;20043;-73
2023/09/24 03:51:26;;;;;;;3.30;2.08;;;;;;;14.14;56.80;99613.16;5127436;28;20039;-73
2023/09/24 03:53:52;;;;;;;3.63;2.00;;;;;;;14.14;56.46;99605.16;5127589;28;20044;-73
2023/09/24 03:56:19;;;;;;;2.80;1.75;;;;;;;14.31;55.99;99642.22;5126953;28;20080;-73
2023/09/24 03:58:47;;;;;;;3.15;2.13;;;;;;;14.22;56.37;99647.28;5127547;28;20040;-73
2023/09/24 04:01:14;;;;;;;4.13;1.80;;;;;;;14.29;57.05;99635.28;5127234;28;20055;-73
2023/09/24 04:03:40;;;;;;;4.55;2.05;;;;;;;14.36;57.59;99642.75;5125997;28;20051;-73
2023/09/24 04:06:11;;;;;;;3.78;2.00;;;;;;;14.25;55.81;99637.28;5127373;28;20053;-73
2023/09/24 04:08:38;;;;;;;3.38;2.40;;;;;;;14.13;57.25;99617.63;5127152;28;20043;-73
2023/09/24 04:11:12;;;;;;;3.45;2.00;;;;;;;14.37;57.14;99652.47;5127034;28;20049;-73
2023/09/24 04:13:40;;;;;;;2.70;1.88;;;;;;;14.38;57.07;99645.34;5126794;28;20097;-73
2023/09/24 04:16:10;;;;;;;3.78;2.08;;;;;;;14.29;56.28;99644.13;5126175;28;20035;-73
2023/09/24 04:18:37;;;;;;;3.28;2.00;;;;;;;14.36;56.58;99642.75;5127576;28;20225;-73
2023/09/24 04:21:04;;;;;;;5.85;2.03;;;;;;;14.29;56.12;99640.59;5126364;28;20135;-73
2023/09/24 04:23:30;;;;;;;3.00;2.08;;;;;;;14.21;56.62;99614.44;5126881;28;20095;-73
2023/09/24 04:25:57;;;;;;;6.03;2.47;;;;;;;14.29;55.85;99652.13;5126206;28;20047;-73
2023/09/24 04:28:24;;;;;;;4.13;2.42;;;;;;;14.21;57.14;99629.59;5126820;28;20051;-73
2023/09/24 04:30:50;;;;;;;3.05;2.20;;;;;;;14.08;55.86;99638.38;5126766;28;20127;-73
2023/09/24 04:33:19;;;;;;;4.82;2.65;;;;;;;14.25;56.33;99661.28;5125597;28;20036;-73
2023/09/24 04:35:45;;;;;;;4.25;2.30;;;;;;;14.24;57.39;99659.56;5125484;28;20119;-73
2023/09/24 04:38:12;;;;;;;4.85;2.50;;;;;;;14.20;55.88;99666.06;5126384;28;20043;-73
2023/09/24 04:40:39;;;;;;;2.60;2.00;;;;;;;14.02;56.17;99645.94;5126675;28;20078;-73
2023/09/24 04:43:06;;;;;;;5.15;2.20;;;;;;;14.28;57.15;99682.41;5126285;28;20051;-73
2023/09/24 04:45:33;;;;;;;5.28;2.58;;;;;;;14.19;55.41;99688.34;5126496;28;20233;-73
2023/09/24 04:47:59;;;;;;;2.95;1.70;;;;;;;14.22;56.62;99681.94;5125090;28;20253;-73
2023/09/24 04:50:28;;;;;;;3.95;2.50;;;;;;;13.91;55.19;99633.28;5126475;28;20206;-73
2023/09/24 04:52:55;;;;;;;3.63;2.40;;;;;;;14.17;55.58;99686.72;5126218;28;20035;-73
2023/09/24 04:55:22;;;;;;;3.55;1.75;;;;;;;14.17;55.33;99673.41;5126309;28;20109;-73
2023/09/24 04:57:48;;;;;;;7.30;2.03;;;;;;;14.15;55.59;99686.81;5126312;28;20291;-73
2023/09/24 05:00:16;;;;;;;3.65;2.13;;;;;;;14.20;56.34;99690.03;5125172;28;20299;-73
2023/09/24 05:02:43;;;;;;;3.15;2.03;;;;;;;14.21;56.09;99694.41;5125563;28;20055;-73
2023/09/24 05:05:10;;;;;;;4.13;2.20;;;;;;;14.20;56.04;99706.03;5126298;28;20207;-73
2023/09/24 05:07:38;;;;;;;4.38;2.20;;;;;;;14.13;55.61;99704.72;5126247;28;20035;-73
2023/09/24 05:10:06;;;;;;;3.70;2.08;;;;;;;14.01;55.59;99709.03;5126249;28;20097;-73
2023/09/24 05:12:33;;;;;;;3.67;1.98;;;;;;;14.12;56.62;99716.34;5126207;28;20303;-73
2023/09/24 05:14:59;;;;;;;3.28;2.22;;;;;;;13.95;56.22;99680.09;5126113;28;20051;-73
2023/09/24 05:17:26;;;;;;;3.50;2.03;;;;;;;14.05;56.54;99693.69;5126215;28;20040;-73
2023/09/24 05:19:53;;;;;;;3.33;2.40;;;;;;;14.23;56.74;99727.16;5125288;28;20092;-73
2023/09/24 05:22:21;;;;;;;4.03;2.38;;;;;;;14.23;56.27;99726.31;5126178;28;20047;-73
2023/09/24 05:24:49;;;;;;;3.78;1.92;;;;;;;14.21;56.28;99726.41;5126147;28;20050;-73
2023/09/24 05:27:17;;;;;;;4.53;1.75;;;;;;;14.13;55.93;99731.38;5125349;28;20295;-73
2023/09/24 05:29:46;;;;;;;3.05;2.00;;;;;;;14.16;56.39;99733.00;5126483;28;20198;-73
2023/09/24 05:32:13;;;;;;;3.60;2.50;;;;;;;14.15;55.95;99732.13;5124901;28;20042;-73
2023/09/24 05:34:39;;;;;;;4.10;2.00;;;;;;;14.17;57.57;99730.22;5124878;28;20044;-73
2023/09/24 05:37:06;;;;;;;3.38;1.90;;;;;;;14.20;57.03;99740.69;5126306;28;20031;-74
2023/09/24 05:39:33;;;;;;;3.03;2.03;;;;;;;14.16;56.46;99733.84;5126001;28;20035;-73
2023/09/24 05:42:01;;;;;;;2.85;1.90;;;;;;;14.16;56.38;99741.00;5125693;28;20047;-73
2023/09/24 05:44:32;;;;;;;3.47;1.85;;;;;;;13.60;56.02;99684.13;5125951;28;20044;-73
2023/09/24 05:46:59;;;;;;;2.70;1.83;;;;;;;14.07;56.66;99756.59;5126176;28;20218;-73
2023/09/24 05:49:26;;;;;;;3.15;2.22;;;;;;;14.20;56.60;99759.34;5125732;28;20065;-73
2023/09/24 05:51:52;;;;;;;3.08;2.20;;;;;;;14.05;57.11;99734.53;5125861;28;20287;-74
2023/09/24 05:54:19;;;;;;;4.15;2.10;;;;;;;14.08;56.38;99763.66;5125867;28;20047;-73
2023/09/24 05:56:46;;;;;;;3.20;2.10;;;;;;;14.12;56.97;99758.97;5126109;28;20055;-73
2023/09/24 05:59:14;;;;;;;2.83;1.95;;;;;;;14.00;56.37;99730.44;5125005;28;20043;-74
2023/09/24 06:01:42;;;;;;;3.85;2.15;;;;;;;14.15;57.02;99763.25;5125880;28;20314;-73
2023/09/24 06:04:09;;;;;;;3.05;2.20;;;;;;;14.12;56.38;99762.50;5125355;28;20066;-72
2023/09/24 06:06:36;;;;;;;3.90;2.40;;;;;;;14.09;56.17;99765.38;5125389;28;20039;-72
2023/09/24 06:09:08;;;;;;;3.38;2.50;;;;;;;14.04;56.01;99767.47;5124646;28;20043;-71
2023/09/24 06:11:35;;;;;;;2.67;1.85;;;;;;;14.08;57.05;99776.97;5128691;28;20059;-73
2023/09/24 06:14:03;;;;;;;5.25;2.33;;;;;;;14.07;56.54;99774.41;5129502;28;20047;-73
2023/09/24 06:16:31;;;;;;;3.92;2.17;;;;;;;14.17;57.11;99780.00;5129149;28;20296;-73
2023/09/24 06:18:58;;;;;;;3.67;2.58;;;;;;;14.20;57.35;99779.81;5128257;28;20311;-73
2023/09/24 06:21:25;;;;;;;3.63;2.20;;;;;;;14.12;57.99;99772.31;5129678;28;20040;-73
2023/09/24 06:23:51;;;;;;;4.28;2.30;;;;;;;14.22;57.41;99788.56;5129157;28;20093;-74
2023/09/24 06:26:19;;;;;;;3.67;2.28;;;;;;;14.30;56.98;99794.28;5129091;28;20063;-74
2023/09/24 06:28:45;;;;;;;6.70;2.88;;;;;;;14.27;57.15;99800.66;5128825;28;20106;-73
2023/09/24 06:31:12;;;;;;;3.40;2.17;;;;;;;14.30;57.32;99795.13;5129426;28;20050;-74
2023/09/24 06:33:40;;;;;;;4.35;2.25;;;;;;;14.24;57.24;99798.19;5127893;28;20062;-74
2023/09/24 06:36:09;;;;;;;4.88;2.17;;;;;;;14.25;56.93;99805.22;5129207;28;20217;-74
2023/09/24 06:38:36;;;;;;;3.97;2.20;;;;;;;14.28;57.33;99813.03;5111965;28;20043;-73
2023/09/24 06:41:04;;;;;;;5.38;2.45;;;;;;;14.29;57.24;99806.75;5127776;28;20054;-74
2023/09/24 06:43:31;;;;;;;4.10;2.20;;;;;;;14.28;57.51;99813.03;5129142;28;20267;-73
2023/09/24 06:45:58;;;;;;;4.10;2.05;;;;;;;14.14;56.78;99778.41;5127777;28;20036;-73
2023/09/24 06:48:26;;;;;;;3.30;2.13;;;;;;;14.36;57.91;99805.41;5128655;28;20043;-73
2023/09/24 06:50:54;;;;;;;6.88;2.35;;;;;;;14.35;56.89;99810.84;5128667;28;20065;-73
2023/09/24 06:53:21;;;;;;;3.75;2.15;;;;;;;14.31;57.20;99796.00;5128061;28;20073;-74
2023/09/24 06:55:48;;;;;;;3.35;2.00;;;;;;;14.43;57.54;99811.22;5128022;28;20055;-74
2023/09/24 06:58:15;;;;;;;4.78;2.00;;;;;;;14.44;57.28;99813.78;5128575;28;20119;-73
2023/09/24 07:00:42;;;;;;;4.00;2.58;;;;;;;14.44;57.55;99818.25;5128496;28;20139;-73
2023/09/24 07:03:08;;;;;;;5.43;2.25;;;;;;;14.41;57.21;99816.63;5127897;28;20051;-73
2023/09/24 07:05:36;;;;;;;3.65;2.30;;;;;;;14.46;57.25;99816.34;5127340;28;20234;-73
2023/09/24 07:08:05;;;;;;;3.72;2.00;;;;;;;14.43;57.03;99820.06;5128109;28;20075;-73
2023/09/24 07:10:32;;;;;;;3.83;2.00;;;;;;;14.39;56.59;99815.88;5128315;28;20085;-73
2023/09/24 07:12:58;;;;;;;5.13;2.25;;;;;;;14.40;57.60;99822.94;5128040;28;20055;-73
2023/09/24 07:15:25;;;;;;;4.07;2.10;;;;;;;14.33;56.50;99831.41;5128231;28;20039;-74
2023/09/24 07:17:52;;;;;;;3.05;1.98;;;;;;;14.40;57.22;99836.25;5128117;28;20040;-74
2023/09/24 07:20:20;;;;;;;3.20;2.10;;;;;;;14.43;57.84;99835.22;5128351;28;20047;-74
2023/09/24 07:22:47;;;;;;;4.88;2.15;;;;;;;14.38;56.44;99824.84;5128133;28;20085;-74
2023/09/24 07:25:15;;;;;;;2.90;1.90;;;;;;;14.23;56.85;99838.28;5128001;28;20058;-74
2023/09/24 07:27:42;;;;;;;3.80;2.50;;;;;;;14.44;57.18;99835.13;5127577;28;20043;-73
2023/09/24 07:30:10;;;;;;;4.22;2.30;;;;;;;14.46;56.81;99843.03;5127011;28;20035;-74
2023/09/24 07:32:37;;;;;;;4.80;2.42;;;;;;;14.41;57.56;99842.44;5127888;28;20047;-73
2023/09/24 07:35:04;;;;;;;3.55;1.92;;;;;;;14.19;57.29;99797.63;5127566;28;20125;-74
2023/09/24 07:37:31;;;;;;;5.53;2.20;;;;;;;14.47;57.31;99847.41;5127524;28;20039;-74
2023/09/24 07:39:58;;;;;;;4.43;2.70;;;;;;;14.47;57.03;99846.53;5127673;28;20344;-74
2023/09/24 07:42:26;;;;;;;3.22;2.30;;;;;;;14.27;57.42;99802.47;5127591;28;20085;-74
2023/09/24 07:44:53;;;;;;;3.75;2.40;;;;;;;14.56;58.91;99856.63;5127082;28;20047;-74
2023/09/24 07:47:19;;;;;;;4.22;2.30;;;;;;;14.55;58.14;99860.25;5126349;28;20062;-74
2023/09/24 07:49:46;;;;;;;4.22;2.22;;;;;;;14.56;57.57;99872.63;5126902;28;20050;-72
2023/09/24 07:52:14;;;;;;;4.43;2.20;;;;;;;14.54;57.36;99859.38;5127642;28;20288;-72
2023/09/24 07:54:41;;;;;;;4.13;2.20;;;;;;;14.54;57.67;99871.88;5127368;28;20104;-72
2023/09/24 07:57:07;;;;;;;3.35;2.13;;;;;;;14.52;56.48;99866.63;5127302;28;20100;-73
2023/09/24 07:59:36;;;;;;;3.40;2.35;;;;;;;14.37;57.32;99823.13;5126406;28;20088;-72
2023/09/24 08:02:02;;;;;;;5.55;2.22;;;;;;;14.42;57.14;99842.34;5125915;28;20310;-74
2023/09/24 08:04:29;;;;;;;4.97;2.42;;;;;;;14.58;57.09;99860.94;5127477;28;20051;-74
2023/09/24 08:06:56;;;;;;;3.72;2.25;;;;;;;14.59;57.76;99864.47;5127121;28;20043;-74
2023/09/24 08:09:23;;;;;;;4.80;2.38;;;;;;;14.61;57.83;99868.78;5126034;28;20118;-74
2023/09/24 08:11:50;;;;;;;3.97;2.72;;;;;;;14.61;57.13;99866.13;5126781;28;20246;-75
2023/09/24 08:14:16;;;;;;;4.10;2.13;;;;;;;14.63;57.27;99874.00;5126893;28;20043;-74
2023/09/24 08:16:44;;;;;;;3.72;1.95;;;;;;;14.44;57.64;99845.78;5126894;28;20043;-74
2023/09/24 08:19:11;;;;;;;3.53;2.40;;;;;;;14.62;56.75;99880.31;5126710;28;20062;-74
2023/09/24 08:21:38;;;;;;;3.53;2.40;;;;;;;14.65;57.13;99883.63;5127264;28;20100;-74
2023/09/24 08:24:05;;;;;;;4.25;2.50;;;;;;;14.68;57.20;99885.25;5126093;28;20032;-74
2023/09/24 08:26:33;;;;;;;3.97;2.72;;;;;;;14.69;57.08;99884.28;5126559;28;20217;-74
2023/09/24 08:29:02;;;;;;;6.00;2.92;;;;;;;14.71;57.26;99891.25;5125816;28;20231;-73
2023/09/24 08:31:29;;;;;;;5.07;2.45;;;;;;;14.72;56.94;99881.44;5126304;28;20054;-74
2023/09/24 08:33:58;;;;;;;3.28;2.20;;;;;;;14.73;56.97;99876.00;5125796;28;20051;-73
2023/09/24 08:36:25;;;;;;;3.97;2.38;;;;;;;14.71;57.33;99883.25;5126513;28;20136;-74
2023/09/24 08:38:51;;;;;;;3.95;2.40;;;;;;;14.71;57.04;99877.91;5126663;28;20046;-74
2023/09/24 08:41:18;;;;;;;3.65;2.42;;;;;;;14.68;56.97;99885.25;5126667;28;20070;-74
2023/09/24 08:43:45;;;;;;;5.00;2.28;;;;;;;14.69;56.76;99890.50;5127102;28;20040;-74
2023/09/24 08:46:12;;;;;;;4.65;2.42;;;;;;;14.32;57.02;99843.88;5125435;28;20050;-75
2023/09/24 08:48:40;;;;;;;4.32;2.40;;;;;;;14.65;56.63;99888.13;5126255;28;20234;-74
2023/09/24 08:51:10;;;;;;;3.95;2.28;;;;;;;14.73;57.56;99893.81;5126396;28;20051;-74
2023/09/24 08:53:39;;;;;;;3.83;2.50;;;;;;;14.74;56.95;99895.53;5125353;28;20039;-75
2023/09/24 08:56:06;;;;;;;4.30;2.70;;;;;;;14.74;57.11;99900.88;5126388;28;20051;-74
2023/09/24 08:58:33;;;;;;;6.70;2.80;;;;;;;14.78;57.11;99902.38;5126738;28;20043;-74
2023/09/24 09:01:00;;;;;;;4.22;2.70;;;;;;;14.81;56.58;99896.00;5126470;28;20184;-74
2023/09/24 09:03:28;;;;;;;4.38;2.65;;;;;;;14.61;58.19;99859.91;5124899;28;20082;-74
2023/09/24 09:05:54;;;;;;;4.40;2.58;;;;;;;14.75;56.89;99894.56;5126596;28;20288;-74
2023/09/24 09:08:22;;;;;;;4.55;2.47;;;;;;;14.77;57.48;99889.16;5126263;28;20039;-74
2023/09/24 09:10:50;;;;;;;4.30;2.60;;;;;;;14.83;56.76;99905.63;5125159;28;20039;-74
2023/09/24 09:13:18;;;;;;;3.85;2.72;;;;;;;14.81;56.81;99894.19;5125663;28;20093;-74
2023/09/24 09:15:46;;;;;;;5.40;2.90;;;;;;;14.80;57.20;99891.63;5125967;28;20050;-74
2023/09/24 09:18:24;;;;;;;5.45;3.05;;;;;;;14.36;57.53;99829.41;5125727;28;20051;-74
2023/09/24 09:20:58;;;;;;;6.15;2.50;;;;;;;14.48;56.78;99843.78;5125927;28;20036;-74
2023/09/24 09:23:34;;;;;;;3.80;2.50;;;;;;;14.77;57.22;99887.34;5125075;28;20043;-74
2023/09/24 09:26:01;;;;;;;3.65;2.47;;;;;;;14.82;57.16;99893.22;5124978;28;20035;-74
2023/09/24 09:28:29;;;;;;;4.38;2.97;;;;;;;14.83;57.33;99892.28;5125005;28;20044;-75
2023/09/24 09:31:01;;;;;;;5.15;3.17;;;;;;;11.45;57.59;99317.88;5124945;28;20097;-74
2023/09/24 09:33:29;;;;;;;4.05;2.53;;;;;;;14.48;57.62;99826.91;5126082;28;20036;-75
2023/09/24 09:35:58;;;;;;;3.97;2.55;;;;;;;14.88;57.95;99886.66;5108026;28;20349;-75
2023/09/24 09:38:25;;;;;;;4.88;2.72;;;;;;;14.87;57.45;99888.47;5126008;28;20072;-74
2023/09/24 09:40:55;;;;;;;4.43;2.83;;;;;;;14.84;56.75;99894.00;5125437;28;20246;-74
2023/09/24 09:43:25;;;;;;;5.85;2.95;;;;;;;14.75;57.06;99868.75;5126016;28;20192;-74
2023/09/24 09:45:53;;;;;;;5.03;2.60;;;;;;;14.89;57.34;99886.53;5126457;28;20204;-74
2023/09/24 09:48:30;;;;;;;4.47;3.15;;;;;;;14.79;58.00;99858.75;5129810;28;20043;-75
2023/09/24 09:51:05;;;;;;;5.22;3.50;;;;;;;14.94;57.88;99881.75;5129919;28;20339;-74
2023/09/24 09:53:34;;;;;;;3.97;3.00;;;;;;;14.94;57.31;99870.22;5129828;28;20047;-74
2023/09/24 09:56:04;;;;;;;4.65;3.10;;;;;;;14.23;57.77;99767.16;5129484;28;20040;-74
2023/09/24 09:58:34;;;;;;;5.38;3.72;;;;;;;14.50;57.86;99822.34;5129930;28;20046;-75
2023/09/24 10:01:02;;;;;;;6.15;3.42;;;;;;;14.34;57.25;99777.13;5129603;28;20356;-74
2023/09/24 10:03:30;;;;;;;5.60;3.25;;;;;;;14.79;57.31;99853.41;5129112;28;20248;-74
2023/09/24 10:05:59;;;;;;;5.65;3.45;;;;;;;14.95;57.88;99888.81;5129903;28;20051;-74
2023/09/24 10:08:35;;;;;;;5.00;3.50;;;;;;;14.98;58.30;99896.63;5128337;28;20032;-74
2023/09/24 10:11:04;;;;;;;3.95;3.00;;;;;;;14.97;57.35;99883.38;5129236;28;20040;-74
2023/09/24 10:13:49;;;;;;;8.80;4.22;;;;;;;14.94;57.27;99870.22;5129045;28;20035;-74
2023/09/24 10:16:38;;;;;;;5.70;3.25;;;;;;;14.95;56.88;99871.94;5129009;28;20044;-74
2023/09/24 10:19:08;;;;;;;6.22;2.95;;;;;;;15.01;56.98;99871.56;5129627;28;20047;-74
2023/09/24 10:21:36;;;;;;;6.35;2.85;;;;;;;14.64;57.89;99817.03;5129376;27;20105;-74
2023/09/24 10:24:49;;;;;;;4.47;2.97;;;;;;;15.07;57.27;99882.69;5128734;28;20043;-74
2023/09/24 10:27:21;;;;;;;6.65;3.15;;;;;;;15.08;57.33;99881.72;5129285;28;20048;-74
2023/09/24 10:30:15;;;;;;;4.78;3.13;;;;;;;14.78;57.57;99830.34;5128019;28;20050;-74
2023/09/24 10:32:49;;;;;;;3.70;2.85;;;;;;;15.07;56.78;99885.34;5129219;28;20051;-73
2023/09/24 10:35:16;;;;;;;5.27;2.70;;;;;;;15.11;57.23;99880.66;5128807;28;20035;-74
2023/09/24 10:38:03;;;;;;;5.97;3.90;;;;;;;15.14;57.37;99879.63;5129330;27;20043;-73
2023/09/24 10:40:31;;;;;;;5.85;3.30;;;;;;;15.14;57.10;99877.81;5128794;28;20053;-73
2023/09/24 10:43:19;;;;;;;6.25;3.40;;;;;;;15.14;56.67;99868.94;5128926;28;20047;-73
2023/09/24 10:45:46;;;;;;;5.93;3.72;;;;;;;15.10;56.09;99862.09;5128917;28;20039;-73
2023/09/24 10:48:14;;;;;;;5.93;3.90;;;;;;;15.10;57.19;99864.75;5128504;28;20325;-73
2023/09/24 10:50:43;;;;;;;6.30;3.88;;;;;;;15.15;56.82;99875.97;5128153;28;20077;-74
2023/09/24 10:53:10;;;;;;;4.95;3.40;;;;;;;14.86;56.54;99817.38;5128158;28;20094;-74
2023/09/24 10:55:40;;;;;;;7.00;3.72;;;;;;;15.16;55.90;99861.69;5127725;28;20043;-73
2023/09/24 10:58:12;;;;;;;4.78;3.38;;;;;;;15.22;56.61;99858.59;5128437;28;20253;-74
2023/09/24 11:00:43;;;;;;;5.30;3.13;;;;;;;15.23;56.29;99852.31;5128253;28;20089;-74
2023/09/24 11:03:12;;;;;;;4.90;2.95;;;;;;;15.23;56.23;99849.63;5127278;28;20044;-74
2023/09/24 11:05:45;;;;;;;5.80;3.33;;;;;;;15.27;56.24;99854.66;5128088;28;20126;-74
2023/09/24 11:08:12;;;;;;;4.15;2.90;;;;;;;15.26;55.49;99850.28;5128611;28;20106;-74
2023/09/24 11:10:39;;;;;;;6.40;3.83;;;;;;;15.25;56.03;99848.56;5127767;28;20200;-74
2023/09/24 11:13:07;;;;;;;5.68;3.63;;;;;;;15.29;56.00;99851.91;5128184;28;20100;-74
2023/09/24 11:15:35;;;;;;;4.72;2.85;;;;;;;15.29;56.45;99851.91;5126982;28;20322;-74
2023/09/24 11:18:05;;;;;;;4.32;3.22;;;;;;;15.29;56.26;99849.22;5127920;28;20110;-74
2023/09/24 11:20:34;;;;;;;5.60;3.20;;;;;;;15.29;56.04;99841.22;5127808;28;20044;-74
2023/09/24 11:23:05;;;;;;;4.35;3.13;;;;;;;15.02;56.38;99786.03;5128199;28;20047;-74
2023/09/24 11:25:31;;;;;;;5.45;3.33;;;;;;;15.36;56.55;99839.84;5128372;28;20070;-74
2023/09/24 11:27:59;;;;;;;6.07;3.92;;;;;;;15.22;56.82;99810.53;5126752;28;20096;-74
2023/09/24 11:30:39;;;;;;;4.05;3.25;;;;;;;15.10;56.79;99792.69;5127239;28;20044;-74
2023/09/24 11:33:14;;;;;;;4.45;3.22;;;;;;;15.39;55.99;99853.84;5127812;28;20053;-74
2023/09/24 11:35:41;;;;;;;5.60;3.13;;;;;;;15.42;56.28;99847.44;5127753;27;20195;-74
2023/09/24 11:38:09;;;;;;;4.68;3.17;;;;;;;14.98;56.39;99779.19;5127888;28;20048;-74
2023/09/24 11:40:37;;;;;;;5.15;2.63;;;;;;;15.17;56.68;99794.84;5127251;28;20035;-74